sensor_id;sensor_type;location;lat;lon;timestamp;temperature;humidity
13093;DHT22;6612;49.568;11.000;2022-08-19T00:01:16;24.70;63.60
13093;DHT22;6612;49.568;11.000;2022-08-19T00:03:43;24.70;63.70
13093;DHT22;6612;49.568;11.000;2022-08-19T00:06:10;24.70;63.80
13093;DHT22;6612;49.568;11.000;2022-08-19T00:08:37;24.70;64.10
13093;DHT22;6612;49.568;11.000;2022-08-19T00:11:04;24.60;64.00
13093;DHT22;6612;49.568;11.000;2022-08-19T00:13:33;24.60;64.20
13093;DHT22;6612;49.568;11.000;2022-08-19T00:16:00;24.60;64.50
13093;DHT22;6612;49.568;11.000;2022-08-19T00:18:27;24.60;65.20
13093;DHT22;6612;49.568;11.000;2022-08-19T00:20:54;24.60;63.60
13093;DHT22;6612;49.568;11.000;2022-08-19T00:23:21;24.50;64.60
13093;DHT22;6612;49.568;11.000;2022-08-19T00:25:48;24.50;64.80
13093;DHT22;6612;49.568;11.000;2022-08-19T00:28:16;24.50;64.90
13093;DHT22;6612;49.568;11.000;2022-08-19T00:30:44;24.50;64.10
13093;DHT22;6612;49.568;11.000;2022-08-19T00:33:11;24.40;65.10
13093;DHT22;6612;49.568;11.000;2022-08-19T00:35:39;24.40;65.00
13093;DHT22;6612;49.568;11.000;2022-08-19T00:38:06;24.40;65.10
13093;DHT22;6612;49.568;11.000;2022-08-19T00:40:33;24.40;65.20
13093;DHT22;6612;49.568;11.000;2022-08-19T00:43:00;24.40;65.40
13093;DHT22;6612;49.568;11.000;2022-08-19T00:45:28;24.30;65.40
13093;DHT22;6612;49.568;11.000;2022-08-19T00:47:58;24.30;65.60
13093;DHT22;6612;49.568;11.000;2022-08-19T00:50:29;24.30;65.70
13093;DHT22;6612;49.568;11.000;2022-08-19T00:52:56;24.30;65.60
13093;DHT22;6612;49.568;11.000;2022-08-19T00:55:26;24.30;66.00
13093;DHT22;6612;49.568;11.000;2022-08-19T00:57:56;24.30;66.20
13093;DHT22;6612;49.568;11.000;2022-08-19T01:00:26;24.30;66.30
13093;DHT22;6612;49.568;11.000;2022-08-19T01:02:54;24.30;66.50
13093;DHT22;6612;49.568;11.000;2022-08-19T01:05:26;24.30;66.40
13093;DHT22;6612;49.568;11.000;2022-08-19T01:07:54;24.30;67.10
13093;DHT22;6612;49.568;11.000;2022-08-19T01:10:25;24.30;66.70
13093;DHT22;6612;49.568;11.000;2022-08-19T01:12:53;24.30;67.20
13093;DHT22;6612;49.568;11.000;2022-08-19T01:15:25;24.30;67.80
13093;DHT22;6612;49.568;11.000;2022-08-19T01:17:53;24.30;67.10
13093;DHT22;6612;49.568;11.000;2022-08-19T01:20:23;24.30;66.80
13093;DHT22;6612;49.568;11.000;2022-08-19T01:22:54;24.40;67.00
13093;DHT22;6612;49.568;11.000;2022-08-19T01:25:25;24.30;67.20
13093;DHT22;6612;49.568;11.000;2022-08-19T01:27:53;24.40;67.40
13093;DHT22;6612;49.568;11.000;2022-08-19T01:30:24;24.40;67.10
13093;DHT22;6612;49.568;11.000;2022-08-19T01:32:52;24.40;67.40
13093;DHT22;6612;49.568;11.000;2022-08-19T01:35:21;24.40;67.40
13093;DHT22;6612;49.568;11.000;2022-08-19T01:37:52;24.40;67.40
13093;DHT22;6612;49.568;11.000;2022-08-19T01:40:22;24.40;67.50
13093;DHT22;6612;49.568;11.000;2022-08-19T01:42:49;24.40;67.50
13093;DHT22;6612;49.568;11.000;2022-08-19T01:45:17;24.40;67.50
13093;DHT22;6612;49.568;11.000;2022-08-19T01:47:45;24.40;67.60
13093;DHT22;6612;49.568;11.000;2022-08-19T01:50:13;24.40;68.40
13093;DHT22;6612;49.568;11.000;2022-08-19T01:52:41;24.40;67.80
13093;DHT22;6612;49.568;11.000;2022-08-19T01:55:13;24.40;67.90
13093;DHT22;6612;49.568;11.000;2022-08-19T01:57:44;24.40;68.30
13093;DHT22;6612;49.568;11.000;2022-08-19T02:00:15;24.40;68.10
13093;DHT22;6612;49.568;11.000;2022-08-19T02:02:42;24.40;68.20
13093;DHT22;6612;49.568;11.000;2022-08-19T02:05:09;24.40;68.00
13093;DHT22;6612;49.568;11.000;2022-08-19T02:07:37;24.40;68.10
13093;DHT22;6612;49.568;11.000;2022-08-19T02:10:05;24.40;68.10
13093;DHT22;6612;49.568;11.000;2022-08-19T02:12:33;24.40;68.20
13093;DHT22;6612;49.568;11.000;2022-08-19T02:15:00;24.40;68.40
13093;DHT22;6612;49.568;11.000;2022-08-19T02:17:28;24.40;68.30
13093;DHT22;6612;49.568;11.000;2022-08-19T02:19:56;24.40;68.30
13093;DHT22;6612;49.568;11.000;2022-08-19T02:22:24;24.40;68.30
13093;DHT22;6612;49.568;11.000;2022-08-19T02:24:51;24.40;68.20
13093;DHT22;6612;49.568;11.000;2022-08-19T02:27:18;24.40;68.30
13093;DHT22;6612;49.568;11.000;2022-08-19T02:29:47;24.40;68.40
13093;DHT22;6612;49.568;11.000;2022-08-19T02:32:15;24.40;68.60
13093;DHT22;6612;49.568;11.000;2022-08-19T02:34:42;24.40;68.40
13093;DHT22;6612;49.568;11.000;2022-08-19T02:37:08;24.40;68.50
13093;DHT22;6612;49.568;11.000;2022-08-19T02:39:55;24.40;68.50
13093;DHT22;6612;49.568;11.000;2022-08-19T02:42:22;24.40;69.30
13093;DHT22;6612;49.568;11.000;2022-08-19T02:44:50;24.40;68.60
13093;DHT22;6612;49.568;11.000;2022-08-19T02:47:18;24.40;68.80
13093;DHT22;6612;49.568;11.000;2022-08-19T02:49:45;24.40;68.70
13093;DHT22;6612;49.568;11.000;2022-08-19T02:52:14;24.40;68.70
13093;DHT22;6612;49.568;11.000;2022-08-19T02:54:41;24.40;68.70
13093;DHT22;6612;49.568;11.000;2022-08-19T02:57:08;24.40;68.70
13093;DHT22;6612;49.568;11.000;2022-08-19T02:59:35;24.40;68.80
13093;DHT22;6612;49.568;11.000;2022-08-19T03:02:03;24.40;68.80
13093;DHT22;6612;49.568;11.000;2022-08-19T03:04:30;24.40;68.80
13093;DHT22;6612;49.568;11.000;2022-08-19T03:06:57;24.40;68.80
13093;DHT22;6612;49.568;11.000;2022-08-19T03:09:24;24.40;68.90
13093;DHT22;6612;49.568;11.000;2022-08-19T03:11:51;24.40;69.00
13093;DHT22;6612;49.568;11.000;2022-08-19T03:14:18;24.40;69.00
13093;DHT22;6612;49.568;11.000;2022-08-19T03:16:47;24.40;69.10
13093;DHT22;6612;49.568;11.000;2022-08-19T03:19:17;24.40;69.20
13093;DHT22;6612;49.568;11.000;2022-08-19T03:21:44;24.40;69.30
13093;DHT22;6612;49.568;11.000;2022-08-19T03:24:13;24.40;69.20
13093;DHT22;6612;49.568;11.000;2022-08-19T03:26:41;24.40;69.20
13093;DHT22;6612;49.568;11.000;2022-08-19T03:29:08;24.40;69.20
13093;DHT22;6612;49.568;11.000;2022-08-19T03:31:37;24.40;69.20
13093;DHT22;6612;49.568;11.000;2022-08-19T03:34:05;24.40;69.30
13093;DHT22;6612;49.568;11.000;2022-08-19T03:36:33;24.40;69.30
13093;DHT22;6612;49.568;11.000;2022-08-19T03:39:01;24.40;69.50
13093;DHT22;6612;49.568;11.000;2022-08-19T03:41:37;24.40;69.40
13093;DHT22;6612;49.568;11.000;2022-08-19T03:44:04;24.40;69.60
13093;DHT22;6612;49.568;11.000;2022-08-19T03:46:33;24.40;69.40
13093;DHT22;6612;49.568;11.000;2022-08-19T03:49:02;24.40;69.50
13093;DHT22;6612;49.568;11.000;2022-08-19T03:51:36;24.40;69.30
13093;DHT22;6612;49.568;11.000;2022-08-19T03:54:07;24.40;69.60
13093;DHT22;6612;49.568;11.000;2022-08-19T03:56:35;24.40;70.10
13093;DHT22;6612;49.568;11.000;2022-08-19T03:59:04;24.40;69.40
13093;DHT22;6612;49.568;11.000;2022-08-19T04:01:31;24.40;69.50
13093;DHT22;6612;49.568;11.000;2022-08-19T04:03:59;24.40;69.40
13093;DHT22;6612;49.568;11.000;2022-08-19T04:06:27;24.30;69.30
13093;DHT22;6612;49.568;11.000;2022-08-19T04:08:57;24.30;69.30
13093;DHT22;6612;49.568;11.000;2022-08-19T04:11:27;24.30;69.40
13093;DHT22;6612;49.568;11.000;2022-08-19T04:13:55;24.30;69.40
13093;DHT22;6612;49.568;11.000;2022-08-19T04:16:24;24.30;69.30
13093;DHT22;6612;49.568;11.000;2022-08-19T04:18:54;24.30;69.20
13093;DHT22;6612;49.568;11.000;2022-08-19T04:21:23;24.30;69.10
13093;DHT22;6612;49.568;11.000;2022-08-19T04:23:51;24.30;69.20
13093;DHT22;6612;49.568;11.000;2022-08-19T04:26:22;24.30;69.10
13093;DHT22;6612;49.568;11.000;2022-08-19T04:28:49;24.30;69.30
13093;DHT22;6612;49.568;11.000;2022-08-19T04:31:20;24.30;69.20
13093;DHT22;6612;49.568;11.000;2022-08-19T04:33:47;24.30;69.30
13093;DHT22;6612;49.568;11.000;2022-08-19T04:36:18;24.30;69.30
13093;DHT22;6612;49.568;11.000;2022-08-19T04:38:46;24.30;69.40
13093;DHT22;6612;49.568;11.000;2022-08-19T04:41:14;24.30;69.30
13093;DHT22;6612;49.568;11.000;2022-08-19T04:44:00;24.30;69.30
13093;DHT22;6612;49.568;11.000;2022-08-19T04:46:28;24.30;69.30
13093;DHT22;6612;49.568;11.000;2022-08-19T04:48:57;24.30;68.80
13093;DHT22;6612;49.568;11.000;2022-08-19T04:51:25;24.30;68.80
13093;DHT22;6612;49.568;11.000;2022-08-19T04:53:52;24.30;69.20
13093;DHT22;6612;49.568;11.000;2022-08-19T04:56:20;24.30;69.30
13093;DHT22;6612;49.568;11.000;2022-08-19T04:58:48;24.30;69.30
13093;DHT22;6612;49.568;11.000;2022-08-19T05:01:20;24.30;69.40
13093;DHT22;6612;49.568;11.000;2022-08-19T05:03:48;24.30;70.30
13093;DHT22;6612;49.568;11.000;2022-08-19T05:06:17;24.30;69.30
13093;DHT22;6612;49.568;11.000;2022-08-19T05:08:45;24.30;69.00
13093;DHT22;6612;49.568;11.000;2022-08-19T05:11:14;24.30;68.80
13093;DHT22;6612;49.568;11.000;2022-08-19T05:13:42;24.30;68.80
13093;DHT22;6612;49.568;11.000;2022-08-19T05:16:10;24.30;69.10
13093;DHT22;6612;49.568;11.000;2022-08-19T05:18:39;24.30;69.30
13093;DHT22;6612;49.568;11.000;2022-08-19T05:21:24;24.30;69.50
13093;DHT22;6612;49.568;11.000;2022-08-19T05:24:09;24.30;69.50
13093;DHT22;6612;49.568;11.000;2022-08-19T05:26:36;24.40;69.60
13093;DHT22;6612;49.568;11.000;2022-08-19T05:29:04;24.40;69.70
13093;DHT22;6612;49.568;11.000;2022-08-19T05:31:33;24.40;69.70
13093;DHT22;6612;49.568;11.000;2022-08-19T05:34:02;24.40;69.70
13093;DHT22;6612;49.568;11.000;2022-08-19T05:36:35;24.40;69.70
13093;DHT22;6612;49.568;11.000;2022-08-19T05:39:05;24.40;69.60
13093;DHT22;6612;49.568;11.000;2022-08-19T05:41:32;24.40;68.90
13093;DHT22;6612;49.568;11.000;2022-08-19T05:44:02;24.40;69.20
13093;DHT22;6612;49.568;11.000;2022-08-19T05:46:31;24.40;69.40
13093;DHT22;6612;49.568;11.000;2022-08-19T05:48:58;24.40;69.60
13093;DHT22;6612;49.568;11.000;2022-08-19T05:51:27;24.50;69.80
13093;DHT22;6612;49.568;11.000;2022-08-19T05:53:54;24.50;70.00
13093;DHT22;6612;49.568;11.000;2022-08-19T05:56:21;24.50;70.00
13093;DHT22;6612;49.568;11.000;2022-08-19T05:58:48;24.50;70.00
13093;DHT22;6612;49.568;11.000;2022-08-19T06:01:16;24.60;70.20
13093;DHT22;6612;49.568;11.000;2022-08-19T06:03:44;24.60;70.50
13093;DHT22;6612;49.568;11.000;2022-08-19T06:06:14;24.60;70.60
13093;DHT22;6612;49.568;11.000;2022-08-19T06:08:43;24.70;71.10
13093;DHT22;6612;49.568;11.000;2022-08-19T06:11:19;24.80;71.80
13093;DHT22;6612;49.568;11.000;2022-08-19T06:13:47;24.90;72.20
13093;DHT22;6612;49.568;11.000;2022-08-19T06:16:16;25.00;72.10
13093;DHT22;6612;49.568;11.000;2022-08-19T06:18:48;25.20;71.70
13093;DHT22;6612;49.568;11.000;2022-08-19T06:21:17;25.30;71.30
13093;DHT22;6612;49.568;11.000;2022-08-19T06:23:46;25.50;71.20
13093;DHT22;6612;49.568;11.000;2022-08-19T06:26:15;25.60;70.90
13093;DHT22;6612;49.568;11.000;2022-08-19T06:28:42;25.60;70.20
13093;DHT22;6612;49.568;11.000;2022-08-19T06:31:12;25.70;69.90
13093;DHT22;6612;49.568;11.000;2022-08-19T06:33:40;25.80;69.50
13093;DHT22;6612;49.568;11.000;2022-08-19T06:36:08;25.80;69.10
13093;DHT22;6612;49.568;11.000;2022-08-19T06:38:42;25.80;69.00
13093;DHT22;6612;49.568;11.000;2022-08-19T06:41:10;25.80;68.70
13093;DHT22;6612;49.568;11.000;2022-08-19T06:43:37;25.80;68.30
13093;DHT22;6612;49.568;11.000;2022-08-19T06:46:09;25.80;68.00
13093;DHT22;6612;49.568;11.000;2022-08-19T06:48:37;25.80;67.50
13093;DHT22;6612;49.568;11.000;2022-08-19T06:51:04;25.90;67.70
13093;DHT22;6612;49.568;11.000;2022-08-19T06:53:32;25.80;67.30
13093;DHT22;6612;49.568;11.000;2022-08-19T06:55:59;25.80;67.50
13093;DHT22;6612;49.568;11.000;2022-08-19T06:58:29;25.80;67.90
13093;DHT22;6612;49.568;11.000;2022-08-19T07:01:00;26.00;67.20
13093;DHT22;6612;49.568;11.000;2022-08-19T07:03:29;25.90;67.50
13093;DHT22;6612;49.568;11.000;2022-08-19T07:05:58;25.90;67.60
13093;DHT22;6612;49.568;11.000;2022-08-19T07:08:24;25.90;67.70
13093;DHT22;6612;49.568;11.000;2022-08-19T07:10:52;26.00;66.70
13093;DHT22;6612;49.568;11.000;2022-08-19T07:13:21;26.00;67.40
13093;DHT22;6612;49.568;11.000;2022-08-19T07:15:49;26.00;67.60
13093;DHT22;6612;49.568;11.000;2022-08-19T07:18:17;26.00;67.50
13093;DHT22;6612;49.568;11.000;2022-08-19T07:20:45;26.10;67.00
13093;DHT22;6612;49.568;11.000;2022-08-19T07:23:12;26.10;67.60
13093;DHT22;6612;49.568;11.000;2022-08-19T07:25:39;26.20;68.10
13093;DHT22;6612;49.568;11.000;2022-08-19T07:28:07;26.20;68.00
13093;DHT22;6612;49.568;11.000;2022-08-19T07:30:36;26.40;67.70
13093;DHT22;6612;49.568;11.000;2022-08-19T07:33:05;26.40;68.20
13093;DHT22;6612;49.568;11.000;2022-08-19T07:35:31;26.40;67.80
13093;DHT22;6612;49.568;11.000;2022-08-19T07:37:59;26.50;67.60
13093;DHT22;6612;49.568;11.000;2022-08-19T07:40:28;26.50;66.90
13093;DHT22;6612;49.568;11.000;2022-08-19T07:42:55;26.50;66.50
13093;DHT22;6612;49.568;11.000;2022-08-19T07:45:22;26.60;66.10
13093;DHT22;6612;49.568;11.000;2022-08-19T07:47:49;26.60;66.10
13093;DHT22;6612;49.568;11.000;2022-08-19T07:50:19;26.60;66.30
13093;DHT22;6612;49.568;11.000;2022-08-19T07:52:46;26.60;66.20
13093;DHT22;6612;49.568;11.000;2022-08-19T07:55:18;26.60;66.40
13093;DHT22;6612;49.568;11.000;2022-08-19T07:57:46;26.60;66.30
13093;DHT22;6612;49.568;11.000;2022-08-19T08:00:14;26.60;66.60
13093;DHT22;6612;49.568;11.000;2022-08-19T08:02:41;26.70;66.50
13093;DHT22;6612;49.568;11.000;2022-08-19T08:05:09;26.70;65.90
13093;DHT22;6612;49.568;11.000;2022-08-19T08:07:55;26.70;65.60
13093;DHT22;6612;49.568;11.000;2022-08-19T08:10:40;26.70;65.30
13093;DHT22;6612;49.568;11.000;2022-08-19T08:13:07;26.70;65.30
13093;DHT22;6612;49.568;11.000;2022-08-19T08:15:34;26.70;65.10
13093;DHT22;6612;49.568;11.000;2022-08-19T08:18:02;26.60;64.90
13093;DHT22;6612;49.568;11.000;2022-08-19T08:20:30;26.60;65.20
13093;DHT22;6612;49.568;11.000;2022-08-19T08:22:58;26.60;65.20
13093;DHT22;6612;49.568;11.000;2022-08-19T08:25:42;26.70;65.00
13093;DHT22;6612;49.568;11.000;2022-08-19T08:28:09;26.70;65.50
13093;DHT22;6612;49.568;11.000;2022-08-19T08:30:36;26.70;65.50
13093;DHT22;6612;49.568;11.000;2022-08-19T08:33:06;26.80;65.70
13093;DHT22;6612;49.568;11.000;2022-08-19T08:35:34;26.80;65.60
13093;DHT22;6612;49.568;11.000;2022-08-19T08:38:02;26.90;65.40
13093;DHT22;6612;49.568;11.000;2022-08-19T08:40:39;27.00;65.00
13093;DHT22;6612;49.568;11.000;2022-08-19T08:43:13;27.00;64.60
13093;DHT22;6612;49.568;11.000;2022-08-19T08:45:50;27.10;65.10
13093;DHT22;6612;49.568;11.000;2022-08-19T08:48:20;27.20;64.90
13093;DHT22;6612;49.568;11.000;2022-08-19T08:50:51;27.40;63.90
13093;DHT22;6612;49.568;11.000;2022-08-19T08:53:20;27.40;64.30
13093;DHT22;6612;49.568;11.000;2022-08-19T08:55:48;27.40;64.00
13093;DHT22;6612;49.568;11.000;2022-08-19T08:58:20;27.50;63.80
13093;DHT22;6612;49.568;11.000;2022-08-19T09:00:50;27.60;63.00
13093;DHT22;6612;49.568;11.000;2022-08-19T09:03:19;27.60;63.40
13093;DHT22;6612;49.568;11.000;2022-08-19T09:05:55;27.60;63.20
13093;DHT22;6612;49.568;11.000;2022-08-19T09:08:40;27.70;62.90
13093;DHT22;6612;49.568;11.000;2022-08-19T09:11:12;27.70;61.50
13093;DHT22;6612;49.568;11.000;2022-08-19T09:13:48;27.70;61.60
13093;DHT22;6612;49.568;11.000;2022-08-19T09:16:21;27.70;61.30
13093;DHT22;6612;49.568;11.000;2022-08-19T09:19:01;27.60;61.10
13093;DHT22;6612;49.568;11.000;2022-08-19T09:21:28;27.60;61.00
13093;DHT22;6612;49.568;11.000;2022-08-19T09:23:57;27.60;61.00
13093;DHT22;6612;49.568;11.000;2022-08-19T09:26:24;27.40;60.90
13093;DHT22;6612;49.568;11.000;2022-08-19T09:28:52;27.40;61.20
13093;DHT22;6612;49.568;11.000;2022-08-19T09:31:22;27.40;61.30
13093;DHT22;6612;49.568;11.000;2022-08-19T09:33:50;27.30;61.30
13093;DHT22;6612;49.568;11.000;2022-08-19T09:36:20;27.30;61.10
13093;DHT22;6612;49.568;11.000;2022-08-19T09:38:49;27.20;61.00
13093;DHT22;6612;49.568;11.000;2022-08-19T09:41:20;27.20;60.90
13093;DHT22;6612;49.568;11.000;2022-08-19T09:43:48;27.10;60.90
13093;DHT22;6612;49.568;11.000;2022-08-19T09:46:17;27.10;61.40
13093;DHT22;6612;49.568;11.000;2022-08-19T09:48:46;27.10;61.40
13093;DHT22;6612;49.568;11.000;2022-08-19T09:51:15;27.00;61.30
13093;DHT22;6612;49.568;11.000;2022-08-19T09:53:44;27.00;61.10
13093;DHT22;6612;49.568;11.000;2022-08-19T09:56:13;27.00;61.20
13093;DHT22;6612;49.568;11.000;2022-08-19T09:58:41;27.00;61.20
13093;DHT22;6612;49.568;11.000;2022-08-19T10:01:09;27.00;61.20
13093;DHT22;6612;49.568;11.000;2022-08-19T10:03:36;27.00;61.10
13093;DHT22;6612;49.568;11.000;2022-08-19T10:06:05;26.90;61.00
13093;DHT22;6612;49.568;11.000;2022-08-19T10:08:33;26.90;60.90
13093;DHT22;6612;49.568;11.000;2022-08-19T10:11:02;27.00;61.00
13093;DHT22;6612;49.568;11.000;2022-08-19T10:13:31;26.90;61.40
13093;DHT22;6612;49.568;11.000;2022-08-19T10:16:06;26.90;61.20
13093;DHT22;6612;49.568;11.000;2022-08-19T10:18:34;27.00;61.10
13093;DHT22;6612;49.568;11.000;2022-08-19T10:21:07;27.00;60.80
13093;DHT22;6612;49.568;11.000;2022-08-19T10:23:35;27.00;60.90
13093;DHT22;6612;49.568;11.000;2022-08-19T10:26:04;27.00;61.20
13093;DHT22;6612;49.568;11.000;2022-08-19T10:28:33;27.00;61.20
13093;DHT22;6612;49.568;11.000;2022-08-19T10:31:08;27.10;60.80
13093;DHT22;6612;49.568;11.000;2022-08-19T10:33:36;27.00;60.70
13093;DHT22;6612;49.568;11.000;2022-08-19T10:36:06;27.10;60.80
13093;DHT22;6612;49.568;11.000;2022-08-19T10:38:34;27.10;60.10
13093;DHT22;6612;49.568;11.000;2022-08-19T10:41:08;27.10;59.80
13093;DHT22;6612;49.568;11.000;2022-08-19T10:43:35;27.10;59.50
13093;DHT22;6612;49.568;11.000;2022-08-19T10:46:04;27.10;59.70
13093;DHT22;6612;49.568;11.000;2022-08-19T10:48:32;27.00;59.80
13093;DHT22;6612;49.568;11.000;2022-08-19T10:51:00;27.00;59.60
13093;DHT22;6612;49.568;11.000;2022-08-19T10:53:45;27.00;59.90
13093;DHT22;6612;49.568;11.000;2022-08-19T10:56:12;27.00;60.00
13093;DHT22;6612;49.568;11.000;2022-08-19T10:58:56;27.00;59.90
13093;DHT22;6612;49.568;11.000;2022-08-19T11:01:24;27.00;59.80
13093;DHT22;6612;49.568;11.000;2022-08-19T11:03:53;27.00;59.80
13093;DHT22;6612;49.568;11.000;2022-08-19T11:06:20;27.00;59.90
13093;DHT22;6612;49.568;11.000;2022-08-19T11:08:47;27.00;60.10
13093;DHT22;6612;49.568;11.000;2022-08-19T11:11:14;27.00;60.20
13093;DHT22;6612;49.568;11.000;2022-08-19T11:13:41;27.00;61.10
13093;DHT22;6612;49.568;11.000;2022-08-19T11:16:12;27.00;60.20
13093;DHT22;6612;49.568;11.000;2022-08-19T11:18:42;27.00;60.20
13093;DHT22;6612;49.568;11.000;2022-08-19T11:21:13;27.00;60.20
13093;DHT22;6612;49.568;11.000;2022-08-19T11:23:42;27.10;60.10
13093;DHT22;6612;49.568;11.000;2022-08-19T11:26:10;27.10;60.30
13093;DHT22;6612;49.568;11.000;2022-08-19T11:28:37;27.10;60.10
13093;DHT22;6612;49.568;11.000;2022-08-19T11:31:09;27.10;59.80
13093;DHT22;6612;49.568;11.000;2022-08-19T11:33:37;27.10;59.60
13093;DHT22;6612;49.568;11.000;2022-08-19T11:36:04;27.10;59.60
13093;DHT22;6612;49.568;11.000;2022-08-19T11:38:33;27.10;59.50
13093;DHT22;6612;49.568;11.000;2022-08-19T11:41:04;27.10;59.20
13093;DHT22;6612;49.568;11.000;2022-08-19T11:43:31;27.10;59.50
13093;DHT22;6612;49.568;11.000;2022-08-19T11:45:58;27.10;59.50
13093;DHT22;6612;49.568;11.000;2022-08-19T11:48:25;27.00;59.30
13093;DHT22;6612;49.568;11.000;2022-08-19T11:50:53;27.00;58.90
13093;DHT22;6612;49.568;11.000;2022-08-19T11:53:22;27.00;59.30
13093;DHT22;6612;49.568;11.000;2022-08-19T11:55:53;27.00;59.40
13093;DHT22;6612;49.568;11.000;2022-08-19T11:58:21;27.00;59.10
13093;DHT22;6612;49.568;11.000;2022-08-19T12:00:48;26.90;59.00
13093;DHT22;6612;49.568;11.000;2022-08-19T12:03:15;26.90;59.40
13093;DHT22;6612;49.568;11.000;2022-08-19T12:05:42;26.90;59.50
13093;DHT22;6612;49.568;11.000;2022-08-19T12:08:09;26.90;60.50
13093;DHT22;6612;49.568;11.000;2022-08-19T12:10:38;26.80;60.20
13093;DHT22;6612;49.568;11.000;2022-08-19T12:13:08;26.80;61.00
13093;DHT22;6612;49.568;11.000;2022-08-19T12:15:36;26.70;61.50
13093;DHT22;6612;49.568;11.000;2022-08-19T12:18:04;26.60;61.80
13093;DHT22;6612;49.568;11.000;2022-08-19T12:20:32;26.50;62.00
13093;DHT22;6612;49.568;11.000;2022-08-19T12:23:00;26.40;62.20
13093;DHT22;6612;49.568;11.000;2022-08-19T12:25:27;26.30;62.40
13093;DHT22;6612;49.568;11.000;2022-08-19T12:27:54;26.20;62.80
13093;DHT22;6612;49.568;11.000;2022-08-19T12:30:22;26.10;63.10
13093;DHT22;6612;49.568;11.000;2022-08-19T12:32:49;26.00;63.60
13093;DHT22;6612;49.568;11.000;2022-08-19T12:35:17;26.00;64.00
13093;DHT22;6612;49.568;11.000;2022-08-19T12:37:46;25.90;64.40
13093;DHT22;6612;49.568;11.000;2022-08-19T12:40:14;25.90;64.70
13093;DHT22;6612;49.568;11.000;2022-08-19T12:42:41;25.80;65.00
13093;DHT22;6612;49.568;11.000;2022-08-19T12:45:09;25.80;65.20
13093;DHT22;6612;49.568;11.000;2022-08-19T12:47:38;25.80;65.60
13093;DHT22;6612;49.568;11.000;2022-08-19T12:50:06;25.80;66.10
13093;DHT22;6612;49.568;11.000;2022-08-19T12:52:34;25.80;66.30
13093;DHT22;6612;49.568;11.000;2022-08-19T12:55:04;25.70;66.50
13093;DHT22;6612;49.568;11.000;2022-08-19T12:57:32;25.70;66.80
13093;DHT22;6612;49.568;11.000;2022-08-19T13:00:04;25.70;66.70
13093;DHT22;6612;49.568;11.000;2022-08-19T13:02:33;25.70;67.00
13093;DHT22;6612;49.568;11.000;2022-08-19T13:05:02;25.70;66.80
13093;DHT22;6612;49.568;11.000;2022-08-19T13:07:29;25.70;67.00
13093;DHT22;6612;49.568;11.000;2022-08-19T13:09:58;25.70;67.00
13093;DHT22;6612;49.568;11.000;2022-08-19T13:12:25;25.70;67.20
13093;DHT22;6612;49.568;11.000;2022-08-19T13:14:53;25.70;67.40
13093;DHT22;6612;49.568;11.000;2022-08-19T13:17:20;25.80;67.60
13093;DHT22;6612;49.568;11.000;2022-08-19T13:19:47;25.80;67.80
13093;DHT22;6612;49.568;11.000;2022-08-19T13:22:16;25.80;67.90
13093;DHT22;6612;49.568;11.000;2022-08-19T13:24:43;25.80;68.00
13093;DHT22;6612;49.568;11.000;2022-08-19T13:27:10;25.80;68.00
13093;DHT22;6612;49.568;11.000;2022-08-19T13:29:37;25.80;68.50
13093;DHT22;6612;49.568;11.000;2022-08-19T13:32:23;25.80;69.20
13093;DHT22;6612;49.568;11.000;2022-08-19T13:35:07;25.70;69.60
13093;DHT22;6612;49.568;11.000;2022-08-19T13:37:36;25.70;70.30
13093;DHT22;6612;49.568;11.000;2022-08-19T13:40:11;25.70;71.30
13093;DHT22;6612;49.568;11.000;2022-08-19T13:42:41;25.70;71.80
13093;DHT22;6612;49.568;11.000;2022-08-19T13:45:09;25.60;71.90
13093;DHT22;6612;49.568;11.000;2022-08-19T13:47:36;25.60;72.30
13093;DHT22;6612;49.568;11.000;2022-08-19T13:50:09;25.60;72.60
13093;DHT22;6612;49.568;11.000;2022-08-19T13:52:37;25.60;72.70
13093;DHT22;6612;49.568;11.000;2022-08-19T13:55:05;25.50;72.80
13093;DHT22;6612;49.568;11.000;2022-08-19T13:57:33;25.50;72.80
13093;DHT22;6612;49.568;11.000;2022-08-19T14:00:01;25.50;72.80
13093;DHT22;6612;49.568;11.000;2022-08-19T14:02:29;25.50;73.00
13093;DHT22;6612;49.568;11.000;2022-08-19T14:04:56;25.40;72.90
13093;DHT22;6612;49.568;11.000;2022-08-19T14:07:23;25.40;72.80
13093;DHT22;6612;49.568;11.000;2022-08-19T14:09:51;25.40;72.40
13093;DHT22;6612;49.568;11.000;2022-08-19T14:12:19;25.30;71.80
13093;DHT22;6612;49.568;11.000;2022-08-19T14:14:46;25.30;71.90
13093;DHT22;6612;49.568;11.000;2022-08-19T14:17:13;25.30;72.10
13093;DHT22;6612;49.568;11.000;2022-08-19T14:19:40;25.20;72.20
13093;DHT22;6612;49.568;11.000;2022-08-19T14:22:08;25.20;72.30
13093;DHT22;6612;49.568;11.000;2022-08-19T14:24:37;25.20;73.10
13093;DHT22;6612;49.568;11.000;2022-08-19T14:27:06;25.20;72.70
13093;DHT22;6612;49.568;11.000;2022-08-19T14:29:34;25.20;72.80
13093;DHT22;6612;49.568;11.000;2022-08-19T14:32:02;25.20;72.60
13093;DHT22;6612;49.568;11.000;2022-08-19T14:34:29;25.20;72.70
13093;DHT22;6612;49.568;11.000;2022-08-19T14:36:57;25.20;72.70
13093;DHT22;6612;49.568;11.000;2022-08-19T14:39:24;25.20;72.90
13093;DHT22;6612;49.568;11.000;2022-08-19T14:41:51;25.10;73.10
13093;DHT22;6612;49.568;11.000;2022-08-19T14:44:19;25.10;73.40
13093;DHT22;6612;49.568;11.000;2022-08-19T14:46:48;25.10;73.60
13093;DHT22;6612;49.568;11.000;2022-08-19T14:49:15;25.10;73.50
13093;DHT22;6612;49.568;11.000;2022-08-19T14:51:42;25.20;73.60
13093;DHT22;6612;49.568;11.000;2022-08-19T14:54:11;25.20;73.60
13093;DHT22;6612;49.568;11.000;2022-08-19T14:56:40;25.20;73.70
13093;DHT22;6612;49.568;11.000;2022-08-19T14:59:07;25.20;74.70
13093;DHT22;6612;49.568;11.000;2022-08-19T15:01:35;25.20;73.80
13093;DHT22;6612;49.568;11.000;2022-08-19T15:04:03;25.20;73.80
13093;DHT22;6612;49.568;11.000;2022-08-19T15:06:30;25.20;73.80
13093;DHT22;6612;49.568;11.000;2022-08-19T15:08:57;25.20;73.80
13093;DHT22;6612;49.568;11.000;2022-08-19T15:11:25;25.20;73.80
13093;DHT22;6612;49.568;11.000;2022-08-19T15:13:54;25.20;73.70
13093;DHT22;6612;49.568;11.000;2022-08-19T15:16:22;25.20;73.50
13093;DHT22;6612;49.568;11.000;2022-08-19T15:18:56;25.10;73.40
13093;DHT22;6612;49.568;11.000;2022-08-19T15:21:25;25.10;74.30
13093;DHT22;6612;49.568;11.000;2022-08-19T15:23:52;25.10;73.50
13093;DHT22;6612;49.568;11.000;2022-08-19T15:26:20;25.00;73.50
13093;DHT22;6612;49.568;11.000;2022-08-19T15:28:47;25.00;73.50
13093;DHT22;6612;49.568;11.000;2022-08-19T15:31:17;25.00;73.50
13093;DHT22;6612;49.568;11.000;2022-08-19T15:33:44;25.00;73.50
13093;DHT22;6612;49.568;11.000;2022-08-19T15:36:13;25.00;73.10
13093;DHT22;6612;49.568;11.000;2022-08-19T15:38:40;24.90;72.90
13093;DHT22;6612;49.568;11.000;2022-08-19T15:41:16;24.90;72.90